Hovedside
METAR-TAF:

METAR-TAF

Lufthavner :

Kuopio, Finland

Kuopio lufthavn

breddegrad: 63-01N, lengdegrad: 027-48E, høyde over havet: 98 m

Gjeldene værobservasjon

Denne rapporten ble laget for 38 minutter siden, klokken 07:50 UTC
Vind 1 kt fra skiftende retning
Temperatur -20°C
Luftfuktighet 84%
Trykk 1012 hPa
Sikt 10 km eller mer
ingen skyer under 1500 m og ingen bygeskyer

METAR: EFKU 220750Z VRB01KT CAVOK M20/M22 Q1012

Tid: 10:28 (08:28 UTC)

Varsel

Denne rapporten ble laget for 3 timer og 0 minutter siden, klokken 05:28 UTC
Varsel gyldig fra 22. klokken 06 UTC til 23. klokken 06 UTC
Vind 2 kt fra Nordøst
Sikt 10 km eller mer
ingen skyer under 1500 m og ingen bygeskyer
Midlertidig
fra 23. klokken 02 UTC til 23. klokken 06 UTC
Sikt: 6000 m
lett snø

TAF: EFKU 220528Z 2206/2306 05002KT CAVOK TEMPO 2302/2306 6000 -SN

Værobservasjoner og værvarsel for over 4000 flyplasser (METAR- og TAF-rapporter).

Tilgjengelige stasjoner er representert av de røde og gule prikkene på kartet.

Hold musepekeren over prikken for å se navnet på stasjonen.

Klikk så for å se værobservasjoner og -varsler.

For å forandre kartet kan du klikke på den grønne knappen med svart kryss for å zoome inn, på den grønne knappen med strek for å zoome ut, eller på de grønne pilene for å se tilstøtende kart.


METAR-TAF: